createdAt,value
2024-03-02T00:00:16.124Z,19.91
2024-03-02T00:01:16.236Z,19.72
2024-03-02T00:02:16.166Z,19.60
2024-03-02T00:03:16.264Z,19.68
2024-03-02T00:04:16.321Z,19.64
2024-03-02T00:05:16.387Z,19.74
2024-03-02T00:06:16.451Z,19.62
2024-03-02T00:07:16.491Z,19.69
2024-03-02T00:08:16.545Z,19.57
2024-03-02T00:09:16.600Z,19.37
2024-03-02T00:10:16.612Z,19.13
2024-03-02T00:11:16.718Z,18.99
2024-03-02T00:12:16.772Z,18.91
2024-03-02T00:13:16.808Z,18.99
2024-03-02T00:14:16.848Z,19.09
2024-03-02T00:15:16.976Z,18.88
2024-03-02T00:16:16.959Z,18.79
2024-03-02T00:17:17.038Z,18.72
2024-03-02T00:18:17.107Z,18.88
2024-03-02T00:19:17.179Z,18.98
2024-03-02T00:20:17.226Z,19.03
2024-03-02T00:21:17.331Z,18.88
2024-03-02T00:22:17.292Z,18.96
2024-03-02T00:23:17.302Z,18.96
2024-03-02T00:24:17.356Z,18.69
2024-03-02T00:25:17.358Z,18.79
2024-03-02T00:26:17.378Z,18.62
2024-03-02T00:27:17.403Z,18.71
2024-03-02T00:28:17.418Z,18.78
2024-03-02T00:29:17.530Z,18.96
2024-03-02T00:30:17.516Z,18.99
2024-03-02T00:31:17.472Z,19.06
2024-03-02T00:32:17.501Z,19.24
2024-03-02T00:33:17.549Z,19.40
2024-03-02T00:34:17.621Z,19.51
2024-03-02T00:35:17.594Z,19.38
2024-03-02T00:36:17.669Z,19.41
2024-03-02T00:37:17.689Z,19.33
2024-03-02T00:38:17.833Z,19.47
2024-03-02T00:39:17.871Z,19.57
2024-03-02T00:40:17.934Z,19.69
2024-03-02T00:41:17.970Z,19.82
2024-03-02T00:42:18.051Z,19.85
2024-03-02T00:43:18.088Z,19.79
2024-03-02T00:44:18.137Z,19.65
2024-03-02T00:45:18.259Z,19.86
2024-03-02T00:46:18.311Z,19.95
2024-03-02T00:47:18.321Z,19.91
2024-03-02T00:48:18.401Z,20.02
2024-03-02T00:49:18.435Z,19.78
2024-03-02T00:50:26.580Z,19.71
2024-03-02T00:51:19.549Z,19.86
2024-03-02T00:52:18.543Z,19.95
2024-03-02T00:53:18.566Z,20.06
2024-03-02T00:54:18.642Z,20.06
2024-03-02T00:55:18.599Z,20.13
2024-03-02T00:56:18.643Z,19.93
2024-03-02T00:57:18.749Z,19.50
2024-03-02T00:58:18.674Z,19.81
2024-03-02T00:59:18.775Z,19.74
2024-03-02T01:00:18.952Z,19.82
2024-03-02T01:01:18.801Z,19.84
2024-03-02T01:02:18.778Z,19.68
2024-03-02T01:03:18.789Z,19.43
2024-03-02T01:04:18.809Z,19.62
2024-03-02T01:05:18.829Z,19.74
2024-03-02T01:06:18.929Z,19.84
2024-03-02T01:07:18.899Z,19.78
2024-03-02T01:08:18.923Z,19.93
2024-03-02T01:09:19.188Z,20.00
2024-03-02T01:10:18.942Z,20.09
2024-03-02T01:11:19.012Z,20.16
2024-03-02T01:12:18.995Z,20.23
2024-03-02T01:13:18.994Z,20.29
2024-03-02T01:14:19.012Z,20.33
2024-03-02T01:15:19.129Z,20.33
2024-03-02T01:16:19.067Z,20.33
2024-03-02T01:17:19.076Z,20.36
2024-03-02T01:18:19.135Z,20.40
2024-03-02T01:19:19.200Z,20.41
2024-03-02T01:20:19.158Z,20.41
2024-03-02T01:21:19.360Z,20.44
2024-03-02T01:22:19.192Z,20.50
2024-03-02T01:23:19.224Z,20.29
2024-03-02T01:24:19.339Z,20.41
2024-03-02T01:25:19.357Z,20.46
2024-03-02T01:26:19.293Z,20.48
2024-03-02T01:27:19.348Z,20.51
2024-03-02T01:28:19.335Z,20.51
2024-03-02T01:29:19.362Z,20.54
2024-03-02T01:30:19.407Z,20.55
2024-03-02T01:31:19.417Z,20.57
2024-03-02T01:32:19.417Z,20.54
2024-03-02T01:33:19.685Z,20.57
2024-03-02T01:34:19.478Z,20.57
2024-03-02T01:35:19.507Z,20.59
2024-03-02T01:36:19.566Z,20.61
2024-03-02T01:37:19.556Z,20.64
2024-03-02T01:38:19.576Z,20.68
2024-03-02T01:39:19.624Z,20.68
2024-03-02T01:40:19.628Z,20.65
2024-03-02T01:41:19.651Z,20.64
2024-03-02T01:42:19.686Z,20.67
2024-03-02T01:43:19.710Z,20.65
2024-03-02T01:44:19.716Z,20.67
2024-03-02T01:45:19.793Z,20.65
2024-03-02T01:46:19.770Z,20.67
2024-03-02T01:47:19.856Z,20.70
2024-03-02T01:48:19.950Z,20.68
2024-03-02T01:49:20.034Z,20.67
2024-03-02T01:50:20.136Z,20.68
2024-03-02T01:51:20.235Z,20.74
2024-03-02T01:52:20.311Z,20.75
2024-03-02T01:53:20.417Z,20.75
2024-03-02T01:54:20.526Z,20.78
2024-03-02T01:55:20.555Z,20.71
2024-03-02T01:56:20.608Z,20.79
2024-03-02T01:57:20.719Z,20.72
2024-03-02T01:58:20.692Z,20.78
2024-03-02T01:59:20.696Z,20.52
2024-03-02T02:00:20.741Z,20.46
2024-03-02T02:01:20.797Z,20.39
2024-03-02T02:02:20.749Z,20.40
2024-03-02T02:03:20.781Z,20.30
2024-03-02T02:04:20.765Z,20.39
2024-03-02T02:05:20.822Z,20.41
2024-03-02T02:06:20.832Z,20.48
2024-03-02T02:07:20.812Z,20.44
2024-03-02T02:08:20.834Z,20.51
2024-03-02T02:09:20.876Z,20.52
2024-03-02T02:10:20.874Z,20.47
2024-03-02T02:11:20.898Z,20.54
2024-03-02T02:12:20.910Z,20.51
2024-03-02T02:13:20.917Z,20.57
2024-03-02T02:14:20.926Z,20.59
2024-03-02T02:15:20.956Z,20.58
2024-03-02T02:16:20.985Z,20.52
2024-03-02T02:17:21.059Z,20.44
2024-03-02T02:18:21.136Z,20.55
2024-03-02T02:19:21.125Z,20.44
2024-03-02T02:20:21.138Z,20.47
2024-03-02T02:21:21.185Z,20.39
2024-03-02T02:22:21.179Z,20.05
2024-03-02T02:23:21.198Z,20.08
2024-03-02T02:24:21.198Z,20.12
2024-03-02T02:25:21.205Z,19.75
2024-03-02T02:26:21.222Z,19.43
2024-03-02T02:27:21.284Z,19.47
2024-03-02T02:28:21.252Z,19.35
2024-03-02T02:29:21.268Z,19.50
2024-03-02T02:30:21.327Z,19.58
2024-03-02T02:31:21.316Z,19.40
2024-03-02T02:32:21.317Z,19.44
2024-03-02T02:33:21.409Z,19.60
2024-03-02T02:34:21.359Z,19.69
2024-03-02T02:35:21.385Z,19.85
2024-03-02T02:36:21.421Z,19.88
2024-03-02T02:37:21.423Z,19.43
2024-03-02T02:38:21.428Z,19.09
2024-03-02T02:39:21.511Z,19.09
2024-03-02T02:40:21.498Z,19.17
2024-03-02T02:41:21.513Z,19.26
2024-03-02T02:42:21.533Z,19.07
2024-03-02T02:43:21.551Z,19.06
2024-03-02T02:44:21.564Z,19.01
2024-03-02T02:45:21.656Z,18.98
2024-03-02T02:46:21.581Z,19.12
2024-03-02T02:47:21.624Z,19.09
2024-03-02T02:48:21.741Z,19.29
2024-03-02T02:49:21.632Z,19.44
2024-03-02T02:50:21.666Z,19.49
2024-03-02T02:51:21.704Z,19.41
2024-03-02T02:52:21.700Z,19.24
2024-03-02T02:53:21.697Z,19.34
2024-03-02T02:54:21.767Z,19.47
2024-03-02T02:55:21.716Z,19.50
2024-03-02T02:56:21.731Z,19.60
2024-03-02T02:57:21.746Z,19.68
2024-03-02T02:58:21.749Z,19.34
2024-03-02T02:59:21.763Z,19.35
2024-03-02T03:00:21.826Z,19.43
2024-03-02T03:01:21.938Z,19.53
2024-03-02T03:02:21.925Z,19.49
2024-03-02T03:03:22.018Z,19.64
2024-03-02T03:04:22.034Z,19.38
2024-03-02T03:05:22.092Z,19.20
2024-03-02T03:06:22.163Z,19.26
2024-03-02T03:07:22.239Z,19.40
2024-03-02T03:08:22.271Z,19.54
2024-03-02T03:09:22.369Z,19.27
2024-03-02T03:10:22.379Z,19.20
2024-03-02T03:11:22.456Z,19.31
2024-03-02T03:12:22.464Z,19.24
2024-03-02T03:13:22.498Z,19.33
2024-03-02T03:14:22.490Z,18.79
2024-03-02T03:15:22.543Z,18.94
2024-03-02T03:16:22.527Z,19.07
2024-03-02T03:17:22.547Z,19.03
2024-03-02T03:18:22.651Z,19.03
2024-03-02T03:19:22.589Z,19.17
2024-03-02T03:20:22.686Z,18.96
2024-03-02T03:21:22.663Z,19.24
2024-03-02T03:22:22.624Z,19.23
2024-03-02T03:23:22.642Z,19.05
2024-03-02T03:24:22.663Z,19.16
2024-03-02T03:25:22.693Z,18.92
2024-03-02T03:26:22.676Z,18.74
2024-03-02T03:27:22.718Z,18.98
2024-03-02T03:28:22.721Z,19.09
2024-03-02T03:29:22.779Z,19.20
2024-03-02T03:30:22.916Z,19.01
2024-03-02T03:31:22.907Z,19.05
2024-03-02T03:32:23.010Z,19.12
2024-03-02T03:33:23.112Z,18.76
2024-03-02T03:34:23.137Z,18.48
2024-03-02T03:35:23.212Z,18.52
2024-03-02T03:36:23.317Z,18.41
2024-03-02T03:37:23.363Z,18.54
2024-03-02T03:38:23.454Z,18.58
2024-03-02T03:39:23.573Z,18.54
2024-03-02T03:40:23.636Z,18.69
2024-03-02T03:41:23.680Z,18.88
2024-03-02T03:42:23.813Z,18.86
2024-03-02T03:43:23.832Z,18.94
2024-03-02T03:44:23.907Z,18.98
2024-03-02T03:45:24.012Z,19.10
2024-03-02T03:46:24.048Z,19.03
2024-03-02T03:47:24.125Z,19.24
2024-03-02T03:48:24.206Z,19.12
2024-03-02T03:49:24.262Z,18.98
2024-03-02T03:50:24.304Z,18.94
2024-03-02T03:51:24.392Z,18.65
2024-03-02T03:52:24.471Z,18.72
2024-03-02T03:53:24.547Z,18.44
2024-03-02T03:54:24.668Z,18.57
2024-03-02T03:55:24.725Z,18.54
2024-03-02T03:56:24.793Z,18.68
2024-03-02T03:57:24.935Z,18.91
2024-03-02T03:58:24.990Z,19.10
2024-03-02T03:59:25.131Z,19.19
2024-03-02T04:00:25.159Z,19.35
2024-03-02T04:01:25.276Z,19.46
2024-03-02T04:02:25.282Z,19.56
2024-03-02T04:03:25.379Z,19.40
2024-03-02T04:04:25.395Z,19.29
2024-03-02T04:05:25.395Z,19.35
2024-03-02T04:06:25.485Z,19.35
2024-03-02T04:07:25.413Z,19.47
2024-03-02T04:08:25.445Z,19.15
2024-03-02T04:09:25.524Z,19.31
2024-03-02T04:10:25.484Z,19.01
2024-03-02T04:11:25.540Z,18.96
2024-03-02T04:12:25.545Z,18.79
2024-03-02T04:13:25.543Z,18.78
2024-03-02T04:14:25.540Z,18.60
2024-03-02T04:15:25.629Z,18.84
2024-03-02T04:16:25.593Z,19.03
2024-03-02T04:17:25.715Z,19.15
2024-03-02T04:18:25.757Z,19.02
2024-03-02T04:19:25.835Z,19.22
2024-03-02T04:20:25.924Z,19.10
2024-03-02T04:21:26.012Z,18.80
2024-03-02T04:22:26.350Z,18.85
2024-03-02T04:23:26.109Z,18.79
2024-03-02T04:24:26.222Z,18.89
2024-03-02T04:25:26.242Z,18.99
2024-03-02T04:26:26.257Z,19.12
2024-03-02T04:27:26.350Z,19.27
2024-03-02T04:28:26.348Z,19.33
2024-03-02T04:29:26.405Z,19.41
2024-03-02T04:30:26.500Z,19.51
2024-03-02T04:31:26.509Z,19.61
2024-03-02T04:32:26.525Z,19.62
2024-03-02T04:33:26.555Z,19.71
2024-03-02T04:34:26.570Z,19.77
2024-03-02T04:35:26.619Z,19.81
2024-03-02T04:36:33.998Z,19.84
2024-03-02T04:37:33.911Z,19.89
2024-03-02T04:38:33.879Z,19.93
2024-03-02T04:39:33.935Z,19.96
2024-03-02T04:40:33.914Z,20.00
2024-03-02T04:41:33.929Z,20.00
2024-03-02T04:42:33.968Z,19.89
2024-03-02T04:43:33.893Z,19.99
2024-03-02T04:44:33.881Z,20.05
2024-03-02T04:45:33.934Z,20.02
2024-03-02T04:46:33.879Z,20.08
2024-03-02T04:47:33.882Z,20.11
2024-03-02T04:48:33.971Z,20.15
2024-03-02T04:49:34.022Z,20.16
2024-03-02T04:50:33.873Z,20.22
2024-03-02T04:51:33.898Z,20.22
2024-03-02T04:52:33.867Z,20.23
2024-03-02T04:53:33.862Z,19.97
2024-03-02T04:54:33.951Z,19.96
2024-03-02T04:55:33.846Z,20.02
2024-03-02T04:56:33.840Z,20.05
2024-03-02T04:57:33.848Z,20.03
2024-03-02T04:58:33.834Z,20.06
2024-03-02T04:59:33.836Z,20.06
2024-03-02T05:00:33.963Z,20.09
2024-03-02T05:01:33.904Z,20.09
2024-03-02T05:02:33.809Z,20.15
2024-03-02T05:03:33.825Z,20.13
2024-03-02T05:04:33.811Z,20.13
2024-03-02T05:05:33.812Z,20.12
2024-03-02T05:06:33.834Z,20.03
2024-03-02T05:07:33.827Z,20.12
2024-03-02T05:08:33.795Z,20.15
2024-03-02T05:09:33.828Z,20.15
2024-03-02T05:10:33.776Z,20.20
2024-03-02T05:11:33.780Z,20.19
2024-03-02T05:12:33.783Z,20.09
2024-03-02T05:13:33.759Z,20.13
2024-03-02T05:14:33.768Z,20.17
2024-03-02T05:15:33.773Z,20.22
2024-03-02T05:16:33.744Z,20.13
2024-03-02T05:17:33.777Z,19.69
2024-03-02T05:18:33.749Z,19.85
2024-03-02T05:19:33.756Z,19.71
2024-03-02T05:20:33.734Z,19.81
2024-03-02T05:21:33.750Z,19.86
2024-03-02T05:22:33.751Z,19.88
2024-03-02T05:23:33.749Z,19.72
2024-03-02T05:24:33.749Z,19.77
2024-03-02T05:25:33.737Z,19.84
2024-03-02T05:26:33.711Z,19.89
2024-03-02T05:27:33.799Z,19.92
2024-03-02T05:28:33.700Z,19.93
2024-03-02T05:29:33.695Z,19.97
2024-03-02T05:30:33.715Z,19.93
2024-03-02T05:31:33.683Z,19.91
2024-03-02T05:32:33.683Z,20.00
2024-03-02T05:33:33.783Z,20.03
2024-03-02T05:34:33.678Z,20.08
2024-03-02T05:35:33.667Z,20.11
2024-03-02T05:36:33.672Z,19.81
2024-03-02T05:37:33.634Z,19.95
2024-03-02T05:38:33.641Z,19.97
2024-03-02T05:39:33.633Z,20.00
2024-03-02T05:40:33.635Z,20.06
2024-03-02T05:41:33.628Z,20.12
2024-03-02T05:42:33.628Z,20.15
2024-03-02T05:43:33.604Z,20.12
2024-03-02T05:44:33.608Z,20.15
2024-03-02T05:45:33.656Z,20.17
2024-03-02T05:46:33.595Z,20.22
2024-03-02T05:47:33.627Z,20.22
2024-03-02T05:48:33.597Z,20.17
2024-03-02T05:49:33.585Z,20.19
2024-03-02T05:50:33.562Z,20.20
2024-03-02T05:51:33.588Z,20.22
2024-03-02T05:52:33.568Z,20.20
2024-03-02T05:53:33.530Z,20.12
2024-03-02T05:54:33.570Z,20.08
2024-03-02T05:55:33.536Z,20.16
2024-03-02T05:56:33.496Z,19.92
2024-03-02T05:57:33.568Z,19.93
2024-03-02T05:58:33.476Z,19.96
2024-03-02T05:59:33.474Z,20.03
2024-03-02T06:00:33.570Z,20.03
2024-03-02T06:01:33.526Z,20.09
2024-03-02T06:02:35.141Z,20.12
2024-03-02T06:03:33.459Z,20.13
2024-03-02T06:04:33.471Z,20.06
2024-03-02T06:05:33.429Z,20.12
2024-03-02T06:06:33.446Z,20.15
2024-03-02T06:07:33.413Z,20.16
2024-03-02T06:08:33.409Z,20.22
2024-03-02T06:09:33.460Z,20.20
2024-03-02T06:10:33.398Z,20.27
2024-03-02T06:11:33.400Z,20.22
2024-03-02T06:12:33.471Z,20.23
2024-03-02T06:13:33.390Z,20.22
2024-03-02T06:14:33.393Z,20.23
2024-03-02T06:15:33.351Z,20.23
2024-03-02T06:16:33.330Z,20.15
2024-03-02T06:17:33.302Z,20.17
2024-03-02T06:18:33.284Z,20.16
2024-03-02T06:19:33.256Z,20.22
2024-03-02T06:20:36.603Z,20.23
2024-03-02T06:21:33.234Z,20.24
2024-03-02T06:22:33.208Z,20.24
2024-03-02T06:23:33.177Z,20.24
2024-03-02T06:24:33.255Z,20.26
2024-03-02T06:25:33.161Z,20.20
2024-03-02T06:26:33.146Z,20.24
2024-03-02T06:27:33.132Z,20.23
2024-03-02T06:28:33.120Z,20.17
2024-03-02T06:29:33.080Z,20.22
2024-03-02T06:30:33.107Z,20.19
2024-03-02T06:31:33.040Z,20.09
2024-03-02T06:32:33.039Z,20.16
2024-03-02T06:33:33.056Z,20.13
2024-03-02T06:34:32.981Z,20.17
2024-03-02T06:35:32.964Z,20.19
2024-03-02T06:36:32.988Z,20.17
2024-03-02T06:37:32.927Z,20.17
2024-03-02T06:38:32.896Z,20.19
2024-03-02T06:39:32.913Z,20.16
2024-03-02T06:40:32.882Z,20.24
2024-03-02T06:41:32.849Z,20.27
2024-03-02T06:42:32.835Z,20.24
2024-03-02T06:43:32.818Z,20.23
2024-03-02T06:44:32.806Z,20.22
2024-03-02T06:45:32.799Z,20.19
2024-03-02T06:46:32.763Z,20.20
2024-03-02T06:47:32.750Z,20.16
2024-03-02T06:48:32.804Z,20.03
2024-03-02T06:49:32.735Z,20.11
2024-03-02T06:50:32.812Z,20.11
2024-03-02T06:51:32.855Z,20.15
2024-03-02T06:52:32.871Z,20.08
2024-03-02T06:53:32.919Z,20.12
2024-03-02T06:54:32.967Z,20.13
2024-03-02T06:55:32.992Z,20.16
2024-03-02T06:56:33.043Z,20.19
2024-03-02T06:57:33.081Z,20.20
2024-03-02T06:58:33.083Z,20.24
2024-03-02T06:59:33.122Z,20.27
2024-03-02T07:00:33.212Z,20.29
2024-03-02T07:01:33.247Z,20.31
2024-03-02T07:02:33.167Z,20.31
2024-03-02T07:03:33.240Z,20.27
2024-03-02T07:04:33.224Z,20.26
2024-03-02T07:05:33.272Z,20.27
2024-03-02T07:06:33.382Z,20.26
2024-03-02T07:07:33.346Z,20.24
2024-03-02T07:08:33.378Z,20.24
2024-03-02T07:09:33.482Z,20.22
2024-03-02T07:10:33.483Z,20.22
2024-03-02T07:11:33.528Z,20.24
2024-03-02T07:12:33.650Z,20.26
2024-03-02T07:13:33.638Z,20.24
2024-03-02T07:14:33.696Z,20.24
2024-03-02T07:15:33.766Z,20.16
2024-03-02T07:16:33.767Z,20.17
2024-03-02T07:17:33.804Z,20.22
2024-03-02T07:18:33.845Z,20.23
2024-03-02T07:19:33.921Z,20.30
2024-03-02T07:20:33.878Z,20.13
2024-03-02T07:21:33.895Z,20.15
2024-03-02T07:22:33.940Z,20.17
2024-03-02T07:23:33.956Z,20.20
2024-03-02T07:24:33.959Z,20.17
2024-03-02T07:27:34.012Z,20.03
2024-03-02T07:28:33.944Z,20.09
2024-03-02T07:29:33.944Z,20.12
2024-03-02T07:30:34.482Z,20.17
2024-03-02T07:31:33.914Z,20.20
2024-03-02T07:32:33.961Z,20.24
2024-03-02T07:33:33.979Z,20.22
2024-03-02T07:34:33.843Z,20.20
2024-03-02T07:35:33.817Z,19.81
2024-03-02T07:36:33.843Z,19.93
2024-03-02T07:37:33.774Z,19.69
2024-03-02T07:38:33.744Z,19.79
2024-03-02T07:39:33.762Z,19.88
2024-03-02T07:40:33.716Z,19.72
2024-03-02T07:41:33.716Z,19.72
2024-03-02T07:42:33.727Z,19.79
2024-03-02T07:43:33.672Z,19.72
2024-03-02T07:44:33.654Z,19.84
2024-03-02T07:45:33.709Z,19.89
2024-03-02T07:46:33.617Z,19.92
2024-03-02T07:47:33.624Z,19.85
2024-03-02T07:48:33.668Z,19.95
2024-03-02T07:49:33.577Z,19.86
2024-03-02T07:50:33.549Z,19.99
2024-03-02T07:51:33.538Z,20.05
2024-03-02T07:52:33.522Z,19.99
2024-03-02T07:53:33.501Z,19.85
2024-03-02T07:54:33.509Z,19.82
2024-03-02T07:55:33.454Z,19.86
2024-03-02T07:56:33.413Z,19.84
2024-03-02T07:57:33.449Z,19.96
2024-03-02T07:58:33.382Z,19.88
2024-03-02T07:59:33.339Z,19.93
2024-03-02T08:00:33.397Z,19.93
2024-03-02T08:01:33.461Z,20.03
2024-03-02T08:02:33.288Z,19.85
2024-03-02T08:03:33.307Z,19.79
2024-03-02T08:04:33.237Z,19.60
2024-03-02T08:05:33.229Z,19.56
2024-03-02T08:06:33.226Z,19.58
2024-03-02T08:07:33.168Z,19.65
2024-03-02T08:08:33.146Z,19.68
2024-03-02T08:09:33.144Z,19.85
2024-03-02T08:10:33.100Z,19.74
2024-03-02T08:11:33.072Z,19.72
2024-03-02T08:12:33.066Z,19.81
2024-03-02T08:13:33.075Z,19.62
2024-03-02T08:14:32.984Z,19.62
2024-03-02T08:15:32.992Z,19.53
2024-03-02T08:16:32.923Z,19.46
2024-03-02T08:17:34.265Z,19.58
2024-03-02T08:18:32.920Z,19.60
2024-03-02T08:19:32.862Z,19.53
2024-03-02T08:20:32.819Z,19.64
2024-03-02T08:21:32.843Z,19.81
2024-03-02T08:22:32.755Z,19.88
2024-03-02T08:23:32.727Z,19.78
2024-03-02T08:24:32.705Z,19.75
2024-03-02T08:25:32.726Z,19.78
2024-03-02T08:26:32.651Z,19.82
2024-03-02T08:27:32.680Z,19.79
2024-03-02T08:28:32.627Z,19.89
2024-03-02T08:29:32.553Z,19.93
2024-03-02T08:30:32.559Z,20.02
2024-03-02T08:31:32.492Z,19.97
2024-03-02T08:32:32.480Z,20.09
2024-03-02T08:33:33.987Z,20.12
2024-03-02T08:34:32.417Z,19.91
2024-03-02T08:35:32.403Z,19.93
2024-03-02T08:36:32.384Z,19.91
2024-03-02T08:37:32.305Z,20.06
2024-03-02T08:38:32.272Z,20.12
2024-03-02T08:39:32.317Z,20.27
2024-03-02T08:40:32.228Z,20.19
2024-03-02T08:41:32.186Z,20.33
2024-03-02T08:42:32.229Z,20.37
2024-03-02T08:43:32.144Z,20.36
2024-03-02T08:44:32.118Z,20.27
2024-03-02T08:45:32.174Z,20.29
2024-03-02T08:46:32.064Z,20.27
2024-03-02T08:47:32.118Z,20.27
2024-03-02T08:48:32.066Z,20.00
2024-03-02T08:49:31.981Z,19.85
2024-03-02T08:50:31.968Z,19.85
2024-03-02T08:51:31.993Z,20.02
2024-03-02T08:52:31.908Z,20.12
2024-03-02T08:53:31.886Z,20.17
2024-03-02T08:54:31.896Z,20.24
2024-03-02T08:55:31.832Z,20.26
2024-03-02T08:56:31.807Z,20.31
2024-03-02T08:57:31.870Z,20.39
2024-03-02T08:58:31.769Z,20.46
2024-03-02T08:59:31.762Z,20.47
2024-03-02T09:00:31.853Z,20.54
2024-03-02T09:01:31.874Z,20.59
2024-03-02T09:02:31.800Z,20.65
2024-03-02T09:03:31.852Z,20.76
2024-03-02T09:05:31.920Z,20.81
2024-03-02T09:06:31.960Z,20.89
2024-03-02T09:07:31.976Z,20.95
2024-03-02T09:08:32.014Z,21.02
2024-03-02T09:09:32.079Z,21.07
2024-03-02T09:10:32.086Z,21.12
2024-03-02T09:11:32.069Z,21.03
2024-03-02T09:12:32.069Z,21.18
2024-03-02T09:13:32.011Z,21.29
2024-03-02T09:14:32.055Z,21.40
2024-03-02T09:15:34.127Z,21.50
2024-03-02T09:16:32.114Z,21.61
2024-03-02T09:17:32.018Z,21.75
2024-03-02T09:18:31.998Z,21.85
2024-03-02T09:19:31.936Z,21.93
2024-03-02T09:20:31.902Z,22.06
2024-03-02T09:21:31.904Z,22.16
2024-03-02T09:22:31.826Z,22.21
2024-03-02T09:23:31.793Z,22.32
2024-03-02T09:24:31.776Z,22.40
2024-03-02T09:25:31.712Z,22.47
2024-03-02T09:26:31.672Z,22.57
2024-03-02T09:27:31.665Z,22.62
2024-03-02T09:28:31.637Z,22.72
2024-03-02T09:29:31.563Z,22.75
2024-03-02T09:30:31.559Z,22.84
2024-03-02T09:31:31.500Z,22.88
2024-03-02T09:32:31.517Z,22.96
2024-03-02T09:33:31.600Z,23.02
2024-03-02T09:34:31.375Z,23.07
2024-03-02T09:35:31.330Z,23.12
2024-03-02T09:36:31.284Z,23.19
2024-03-02T09:37:31.235Z,23.23
2024-03-02T09:38:31.168Z,23.30
2024-03-02T09:39:31.160Z,23.37
2024-03-02T09:40:31.075Z,23.41
2024-03-02T09:41:31.039Z,23.47
2024-03-02T09:42:31.058Z,23.50
2024-03-02T09:43:30.949Z,23.60
2024-03-02T09:44:30.910Z,23.64
2024-03-02T09:45:30.883Z,23.67
2024-03-02T09:46:30.814Z,23.72
2024-03-02T09:47:30.854Z,23.78
2024-03-02T09:48:30.737Z,23.81
2024-03-02T09:49:30.680Z,23.85
2024-03-02T09:50:30.650Z,23.89
2024-03-02T09:51:30.593Z,23.89
2024-03-02T09:52:30.542Z,23.94
2024-03-02T09:53:30.514Z,23.96
2024-03-02T09:54:30.489Z,24.02
2024-03-02T09:55:30.421Z,24.05
2024-03-02T09:56:30.398Z,24.06
2024-03-02T09:57:30.346Z,24.11
2024-03-02T09:58:30.291Z,24.13
2024-03-02T09:59:30.243Z,24.19
2024-03-02T10:00:30.219Z,24.22
2024-03-02T10:01:30.213Z,24.22
2024-03-02T10:02:30.086Z,24.27
2024-03-02T10:03:30.079Z,24.30
2024-03-02T10:04:29.998Z,24.36
2024-03-02T10:05:30.222Z,24.40
2024-03-02T10:06:29.990Z,24.46
2024-03-02T10:07:29.852Z,24.48
2024-03-02T10:08:29.819Z,24.54
2024-03-02T10:09:29.768Z,24.57
2024-03-02T10:10:29.728Z,24.61
2024-03-02T10:11:29.718Z,24.61
2024-03-02T10:12:29.626Z,24.63
2024-03-02T10:13:29.590Z,24.65
2024-03-02T10:14:29.540Z,24.65
2024-03-02T10:15:29.551Z,24.63
2024-03-02T10:16:29.536Z,24.63
2024-03-02T10:17:29.551Z,24.61
2024-03-02T10:18:29.676Z,24.63
2024-03-02T10:19:29.499Z,24.64
2024-03-02T10:20:29.500Z,24.63
2024-03-02T10:21:29.515Z,24.64
2024-03-02T10:22:29.474Z,24.65
2024-03-02T10:23:29.480Z,24.65
2024-03-02T10:24:29.505Z,24.67
2024-03-02T10:25:37.391Z,24.67
2024-03-02T10:26:29.372Z,24.70
2024-03-02T10:27:29.355Z,24.70
2024-03-02T10:28:29.402Z,24.70
2024-03-02T10:29:29.213Z,24.65
2024-03-02T10:30:29.224Z,24.65
2024-03-02T10:31:29.146Z,24.65
2024-03-02T10:32:29.136Z,24.65
2024-03-02T10:33:29.095Z,24.65
2024-03-02T10:34:28.985Z,24.65
2024-03-02T10:35:28.924Z,24.68
2024-03-02T10:36:28.899Z,24.67
2024-03-02T10:37:28.828Z,24.65
2024-03-02T10:38:28.786Z,24.68
2024-03-02T10:39:28.782Z,24.67
2024-03-02T10:40:28.714Z,24.68
2024-03-02T10:41:28.662Z,24.68
2024-03-02T10:42:28.670Z,24.68
2024-03-02T10:43:28.555Z,24.70
2024-03-02T10:44:28.507Z,24.70
2024-03-02T10:45:28.518Z,24.71
2024-03-02T10:46:28.429Z,24.70
2024-03-02T10:47:28.437Z,24.71
2024-03-02T10:48:28.339Z,24.71
2024-03-02T10:49:28.307Z,24.72
2024-03-02T10:50:28.218Z,24.75
2024-03-02T10:51:28.178Z,24.75
2024-03-02T10:52:28.117Z,24.74
2024-03-02T10:53:28.069Z,24.75
2024-03-02T10:54:28.258Z,24.75
2024-03-02T10:55:28.399Z,24.74
2024-03-02T10:56:27.977Z,24.75
2024-03-02T10:57:27.967Z,24.75
2024-03-02T10:58:27.924Z,24.77
2024-03-02T10:59:27.769Z,24.77
2024-03-02T11:00:27.761Z,24.75
2024-03-02T11:01:27.781Z,24.74
2024-03-02T11:02:27.652Z,24.77
2024-03-02T11:03:27.627Z,24.75
2024-03-02T11:04:27.557Z,24.79
2024-03-02T11:05:27.494Z,24.82
2024-03-02T11:06:27.477Z,24.84
2024-03-02T11:07:27.404Z,24.86
2024-03-02T11:08:27.364Z,24.91
2024-03-02T11:09:27.343Z,25.01
2024-03-02T11:10:27.261Z,25.01
2024-03-02T11:11:27.266Z,25.06
2024-03-02T11:12:27.275Z,25.03
2024-03-02T11:13:27.146Z,25.06
2024-03-02T11:14:27.134Z,25.06
2024-03-02T11:15:27.076Z,25.10
2024-03-02T11:16:26.998Z,25.13
2024-03-02T11:17:26.955Z,25.12
2024-03-02T11:18:26.992Z,25.15
2024-03-02T11:19:26.905Z,25.16
2024-03-02T11:20:26.848Z,25.15
2024-03-02T11:21:26.789Z,25.18
2024-03-02T11:22:26.713Z,25.20
2024-03-02T11:23:26.668Z,25.26
2024-03-02T11:24:26.651Z,25.25
2024-03-02T11:25:26.564Z,25.25
2024-03-02T11:26:26.523Z,25.27
2024-03-02T11:27:26.504Z,25.30
2024-03-02T11:28:26.412Z,25.32
2024-03-02T11:29:26.366Z,25.34
2024-03-02T11:30:26.371Z,25.30
2024-03-02T11:31:26.275Z,25.29
2024-03-02T11:32:26.242Z,25.29
2024-03-02T11:33:26.243Z,25.33
2024-03-02T11:34:26.122Z,25.34
2024-03-02T11:35:26.065Z,25.38
2024-03-02T11:36:26.084Z,25.46
2024-03-02T11:37:25.984Z,25.43
2024-03-02T11:38:26.008Z,25.41
2024-03-02T11:39:25.999Z,25.46
2024-03-02T11:40:25.972Z,25.51
2024-03-02T11:41:25.988Z,25.61
2024-03-02T11:42:26.043Z,25.60
2024-03-02T11:43:26.003Z,25.64
2024-03-02T11:44:26.006Z,25.74
2024-03-02T11:45:26.060Z,25.73
2024-03-02T11:46:26.044Z,25.81
2024-03-02T11:47:26.028Z,25.80
2024-03-02T11:48:26.046Z,25.87
2024-03-02T11:49:25.983Z,25.84
2024-03-02T11:50:25.976Z,25.84
2024-03-02T11:51:25.958Z,25.81
2024-03-02T11:52:25.884Z,25.91
2024-03-02T11:53:25.817Z,25.89
2024-03-02T11:54:25.915Z,25.88
2024-03-02T11:55:25.714Z,25.81
2024-03-02T11:56:25.674Z,25.80
2024-03-02T11:57:25.652Z,25.77
2024-03-02T11:58:25.579Z,25.74
2024-03-02T11:59:25.540Z,25.73
2024-03-02T12:00:25.544Z,25.68
2024-03-02T12:01:25.576Z,25.68
2024-03-02T12:02:25.425Z,25.65
2024-03-02T12:03:25.410Z,25.75
2024-03-02T12:04:25.302Z,25.85
2024-03-02T12:05:25.305Z,25.93
2024-03-02T12:06:25.324Z,25.99
2024-03-02T12:07:25.472Z,25.98
2024-03-02T12:08:25.260Z,26.03
2024-03-02T12:09:25.261Z,26.06
2024-03-02T12:10:25.189Z,26.10
2024-03-02T12:11:25.179Z,26.13
2024-03-02T12:12:25.161Z,26.16
2024-03-02T12:13:25.086Z,26.18
2024-03-02T12:14:25.027Z,26.23
2024-03-02T12:15:25.033Z,26.25
2024-03-02T12:16:24.968Z,26.29
2024-03-02T12:17:24.909Z,26.30
2024-03-02T12:18:24.937Z,26.35
2024-03-02T12:19:24.857Z,26.33
2024-03-02T12:20:24.810Z,26.36
2024-03-02T12:21:24.794Z,26.33
2024-03-02T12:22:24.776Z,26.35
2024-03-02T12:23:24.743Z,26.35
2024-03-02T12:24:24.753Z,26.27
2024-03-02T12:25:24.696Z,26.29
2024-03-02T12:26:24.676Z,26.29
2024-03-02T12:27:24.642Z,26.19
2024-03-02T12:28:24.538Z,26.18
2024-03-02T12:29:24.494Z,26.13
2024-03-02T12:30:24.575Z,26.10
2024-03-02T12:31:24.398Z,26.15
2024-03-02T12:32:24.328Z,26.16
2024-03-02T12:33:24.565Z,26.13
2024-03-02T12:34:24.347Z,26.10
2024-03-02T12:35:24.195Z,26.15
2024-03-02T12:36:24.174Z,26.18
2024-03-02T12:37:24.063Z,26.15
2024-03-02T12:38:24.013Z,26.15
2024-03-02T12:39:24.032Z,26.16
2024-03-02T12:40:24.301Z,26.16
2024-03-02T12:41:23.877Z,26.20
2024-03-02T12:42:23.868Z,26.26
2024-03-02T12:43:23.756Z,26.33
2024-03-02T12:44:23.701Z,26.35
2024-03-02T12:45:23.703Z,26.36
2024-03-02T12:46:23.609Z,26.37
2024-03-02T12:47:23.620Z,26.40
2024-03-02T12:48:23.563Z,26.44
2024-03-02T12:49:23.422Z,26.42
2024-03-02T12:50:23.376Z,26.44
2024-03-02T12:51:23.343Z,26.46
2024-03-02T12:52:23.279Z,26.48
2024-03-02T12:53:23.209Z,26.51
2024-03-02T12:54:23.216Z,26.51
2024-03-02T12:55:23.322Z,26.48